Time;durP1;ratioP1;P1;durP2;ratioP2;P2;SDS_P1;SDS_P2;PMS_P1;PMS_P2;Temp;Humidity;BMP_temperature;BMP_pressure;BME280_temperature;BME280_humidity;BME280_pressure;Samples;Min_cycle;Max_cycle;Signal;HPM_P1;HPM_P2
2023/07/30 00:02:17;;;;;;;2.00;0.52;;;;;;;16.16;60.32;100276.25;4977349;28;20495;-74
2023/07/30 00:04:44;;;;;;;0.93;0.50;;;;;;;16.15;60.58;100274.53;4982716;28;20502;-73
2023/07/30 00:07:11;;;;;;;3.05;0.60;;;;;;;16.10;60.64;100269.50;4979366;28;20418;-73
2023/07/30 00:09:38;;;;;;;2.42;0.63;;;;;;;16.10;60.81;100271.28;4981176;28;20455;-74
2023/07/30 00:12:07;;;;;;;1.48;0.60;;;;;;;16.08;60.67;100273.13;4981140;28;20046;-74
2023/07/30 00:14:35;;;;;;;1.00;0.52;;;;;;;16.06;60.92;100275.84;4981742;28;20769;-74
2023/07/30 00:17:02;;;;;;;2.33;0.70;;;;;;;16.05;60.95;100271.53;4977213;28;20050;-73
2023/07/30 00:19:29;;;;;;;0.90;0.50;;;;;;;16.03;61.04;100270.75;4973770;28;20054;-74
2023/07/30 00:21:56;;;;;;;1.00;0.60;;;;;;;16.01;61.49;100269.09;4973924;28;20157;-74
2023/07/30 00:24:23;;;;;;;2.70;0.70;;;;;;;15.98;61.43;100264.00;4973264;28;20050;-74
2023/07/30 00:26:50;;;;;;;2.42;0.68;;;;;;;15.96;61.77;100264.91;4971936;28;20061;-73
2023/07/30 00:29:17;;;;;;;1.55;0.65;;;;;;;15.94;61.54;100263.28;4979474;28;20061;-74
2023/07/30 00:31:44;;;;;;;1.80;0.70;;;;;;;15.92;61.76;100262.50;4984169;28;20046;-73
2023/07/30 00:34:11;;;;;;;1.80;0.70;;;;;;;15.91;62.00;100263.44;4983248;28;20105;-73
2023/07/30 00:36:37;;;;;;;3.25;0.98;;;;;;;15.89;61.96;100258.25;4981062;28;20060;-73
2023/07/30 00:39:04;;;;;;;1.70;0.52;;;;;;;15.87;62.01;100254.81;4980673;28;20053;-73
2023/07/30 00:41:31;;;;;;;2.08;1.10;;;;;;;15.86;62.27;100247.00;4980014;28;20047;-73
2023/07/30 00:43:58;;;;;;;1.92;0.52;;;;;;;15.84;62.31;100259.38;4979997;28;20053;-73
2023/07/30 00:46:25;;;;;;;0.93;0.63;;;;;;;15.81;62.53;100249.00;4983805;28;20050;-74
2023/07/30 00:48:54;;;;;;;0.90;0.50;;;;;;;15.82;62.43;100254.19;4978282;28;20047;-73
2023/07/30 00:51:21;;;;;;;2.17;1.02;;;;;;;15.80;62.53;100252.56;4977822;28;20077;-74
2023/07/30 00:53:49;;;;;;;1.33;0.65;;;;;;;15.80;62.59;100248.16;4979487;28;20506;-73
2023/07/30 00:56:16;;;;;;;1.58;0.85;;;;;;;15.77;62.53;100248.31;4978575;28;20046;-74
2023/07/30 00:58:44;;;;;;;1.30;0.77;;;;;;;15.76;62.80;100254.47;4980216;28;20546;-73
2023/07/30 01:01:13;;;;;;;2.75;0.80;;;;;;;15.74;63.26;100243.19;4979397;28;20050;-73
2023/07/30 01:03:40;;;;;;;1.98;0.70;;;;;;;15.72;63.06;100243.25;4978966;28;20054;-73
2023/07/30 01:06:08;;;;;;;1.90;0.80;;;;;;;15.69;63.58;100239.94;4978719;28;20053;-74
2023/07/30 01:08:35;;;;;;;1.02;0.80;;;;;;;15.68;63.44;100252.25;4980483;28;20054;-73
2023/07/30 01:11:05;;;;;;;3.38;0.82;;;;;;;15.68;63.68;100246.09;4978221;28;20094;-74
2023/07/30 01:13:33;;;;;;;1.02;0.88;;;;;;;15.67;63.78;100241.72;4975677;28;20047;-73
2023/07/30 01:16:01;;;;;;;1.58;0.70;;;;;;;15.67;63.72;100244.38;4981320;28;20153;-73
2023/07/30 01:18:27;;;;;;;1.58;0.55;;;;;;;15.65;63.90;100247.09;4983963;28;20056;-73
2023/07/30 01:20:58;;;;;;;0.95;0.65;;;;;;;15.67;64.07;100247.00;4986149;28;20049;-73
2023/07/30 01:23:26;;;;;;;1.63;0.60;;;;;;;15.65;64.06;100248.84;4973720;28;20057;-74
2023/07/30 01:26:01;;;;;;;1.90;0.90;;;;;;;15.66;64.10;100254.06;4976516;28;20043;-74
2023/07/30 01:28:30;;;;;;;2.47;0.70;;;;;;;15.66;64.19;100251.41;4978311;28;20046;-74
2023/07/30 01:31:01;;;;;;;2.80;0.73;;;;;;;15.64;64.16;100255.91;4977847;28;20055;-74
2023/07/30 01:33:28;;;;;;;1.60;0.60;;;;;;;15.64;64.36;100258.53;4977779;28;20051;-73
2023/07/30 01:35:58;;;;;;;1.35;0.88;;;;;;;15.63;64.40;100254.19;4977721;28;21434;-76
2023/07/30 01:38:27;;;;;;;3.55;0.70;;;;;;;15.63;64.58;100253.34;4979805;28;20047;-73
2023/07/30 01:40:54;;;;;;;2.80;0.88;;;;;;;15.62;64.62;100249.00;4978200;28;20050;-73
2023/07/30 01:43:21;;;;;;;1.63;0.80;;;;;;;15.62;64.67;100239.31;4977353;28;20053;-73
2023/07/30 01:45:48;;;;;;;0.70;0.60;;;;;;;15.62;64.59;100251.63;4976416;28;20426;-75
2023/07/30 01:48:15;;;;;;;1.40;0.70;;;;;;;15.61;64.66;100253.41;4980348;28;20142;-73
2023/07/30 01:50:43;;;;;;;1.35;0.60;;;;;;;15.61;64.63;100255.19;4978943;28;20057;-74
2023/07/30 01:53:11;;;;;;;1.75;0.90;;;;;;;15.61;64.77;100255.19;4981407;28;20053;-73
2023/07/30 01:55:39;;;;;;;1.85;0.70;;;;;;;15.59;64.76;100250.00;4974073;28;20053;-74
2023/07/30 01:58:06;;;;;;;1.27;0.52;;;;;;;15.60;64.85;100253.50;4971937;28;20051;-73
2023/07/30 02:00:33;;;;;;;1.30;0.90;;;;;;;15.59;64.58;100254.41;4981817;28;20437;-74
2023/07/30 02:02:59;;;;;;;1.13;0.60;;;;;;;15.57;64.81;100246.59;4981971;28;20050;-73
2023/07/30 02:05:26;;;;;;;2.00;0.80;;;;;;;15.58;64.82;100250.09;4981376;28;20050;-73
2023/07/30 02:07:53;;;;;;;1.70;0.80;;;;;;;15.57;64.91;100251.00;4978046;28;20057;-74
2023/07/30 02:10:21;;;;;;;3.33;1.15;;;;;;;15.55;64.82;100245.81;4977287;28;20422;-73
2023/07/30 02:12:48;;;;;;;1.67;0.95;;;;;;;15.55;65.19;100243.19;4975572;28;20042;-72
2023/07/30 02:15:15;;;;;;;2.80;0.80;;;;;;;15.55;65.11;100237.06;4974292;28;20043;-72
2023/07/30 02:17:42;;;;;;;1.58;0.80;;;;;;;15.53;65.10;100243.25;4979570;28;20080;-72
2023/07/30 02:20:10;;;;;;;3.15;0.90;;;;;;;15.51;65.01;100242.47;4979054;28;20053;-73
2023/07/30 02:22:37;;;;;;;0.68;0.45;;;;;;;15.51;65.24;100237.22;4979061;28;20050;-73
2023/07/30 02:25:04;;;;;;;1.45;0.80;;;;;;;15.50;65.38;100234.63;4985544;28;20070;-72
2023/07/30 02:27:32;;;;;;;1.50;1.05;;;;;;;15.49;65.46;100244.31;4985213;28;20043;-73
2023/07/30 02:29:59;;;;;;;1.25;0.80;;;;;;;15.48;65.28;100247.00;4982990;28;20072;-77
2023/07/30 02:32:26;;;;;;;2.75;0.60;;;;;;;15.47;65.50;100242.69;4976149;28;20050;-72
2023/07/30 02:34:53;;;;;;;3.20;0.73;;;;;;;15.46;65.37;100243.63;4976433;28;20149;-72
2023/07/30 02:37:20;;;;;;;2.13;1.17;;;;;;;15.45;65.55;100234.88;4978165;28;20058;-73
2023/07/30 02:39:47;;;;;;;1.50;0.90;;;;;;;15.45;65.65;100236.63;4980031;28;20055;-73
2023/07/30 02:42:13;;;;;;;1.67;0.80;;;;;;;15.44;65.76;100237.56;4982167;28;20050;-73
2023/07/30 02:44:42;;;;;;;5.10;1.55;;;;;;;15.42;65.94;100242.88;4981706;28;20054;-73
2023/07/30 02:47:09;;;;;;;2.25;0.98;;;;;;;15.42;65.99;100247.31;4977183;28;20173;-73
2023/07/30 02:49:36;;;;;;;1.50;0.90;;;;;;;15.42;66.18;100250.78;4979157;28;20047;-73
2023/07/30 02:52:02;;;;;;;1.92;1.10;;;;;;;15.42;66.27;100250.78;4979437;28;20518;-72
2023/07/30 02:54:29;;;;;;;2.22;1.08;;;;;;;15.42;66.44;100248.16;4976503;28;20055;-72
2023/07/30 02:56:56;;;;;;;2.08;0.90;;;;;;;15.41;66.53;100245.59;4979782;28;20065;-72
2023/07/30 02:59:23;;;;;;;1.88;1.13;;;;;;;15.41;66.33;100241.19;4980344;28;20110;-73
2023/07/30 03:01:51;;;;;;;4.95;0.82;;;;;;;15.42;66.58;100242.88;4981349;28;20427;-73
2023/07/30 03:04:18;;;;;;;1.25;0.63;;;;;;;15.40;66.54;100242.13;4980536;28;20055;-72
2023/07/30 03:06:45;;;;;;;1.80;0.90;;;;;;;15.41;66.42;100237.72;4982410;28;20060;-73
2023/07/30 03:09:12;;;;;;;2.15;0.93;;;;;;;15.40;66.58;100246.53;4981355;28;20043;-73
2023/07/30 03:11:39;;;;;;;2.50;0.90;;;;;;;15.41;66.71;100240.34;4983233;28;20050;-72
2023/07/30 03:14:06;;;;;;;3.72;1.30;;;;;;;15.41;66.71;100241.19;4985212;28;20046;-72
2023/07/30 03:16:32;;;;;;;4.43;1.08;;;;;;;15.41;67.10;100241.19;4979820;28;20047;-73
2023/07/30 03:19:01;;;;;;;3.50;1.70;;;;;;;15.41;67.13;100241.19;4975686;28;20051;-72
2023/07/30 03:21:28;;;;;;;1.88;1.00;;;;;;;15.41;67.11;100251.72;4975885;28;20061;-73
2023/07/30 03:23:54;;;;;;;3.75;1.65;;;;;;;15.41;67.49;100254.34;4975407;28;20046;-73
2023/07/30 03:26:21;;;;;;;2.67;1.00;;;;;;;15.41;67.58;100251.72;4979026;28;20810;-72
2023/07/30 03:28:48;;;;;;;3.63;0.95;;;;;;;15.42;67.53;100239.41;4979855;28;20051;-73
2023/07/30 03:31:15;;;;;;;3.67;1.27;;;;;;;15.43;67.61;100243.78;4980309;28;20079;-73
2023/07/30 03:33:43;;;;;;;3.10;1.02;;;;;;;15.43;67.67;100239.34;4979186;28;20057;-73
2023/07/30 03:36:12;;;;;;;2.58;1.30;;;;;;;15.44;67.81;100245.47;4981062;28;20419;-73
2023/07/30 03:38:39;;;;;;;3.33;0.90;;;;;;;15.41;67.89;100235.94;4981549;28;20053;-72
2023/07/30 03:41:06;;;;;;;1.60;0.98;;;;;;;15.47;68.17;100250.59;4980138;28;20047;-73
2023/07/30 03:43:33;;;;;;;3.20;1.08;;;;;;;15.48;68.09;100252.28;4977942;28;20328;-73
2023/07/30 03:46:00;;;;;;;3.70;1.10;;;;;;;15.44;68.39;100235.78;4980998;28;20046;-73
2023/07/30 03:48:27;;;;;;;1.58;1.27;;;;;;;15.51;68.41;100254.75;4983972;28;20050;-74
2023/07/30 03:50:54;;;;;;;2.03;0.93;;;;;;;15.52;68.62;100246.81;4976392;28;20786;-72
2023/07/30 03:53:22;;;;;;;1.60;1.17;;;;;;;15.53;68.58;100251.13;4984611;28;20054;-73
2023/07/30 03:55:49;;;;;;;5.03;0.98;;;;;;;15.55;68.45;100244.97;4985999;28;20618;-73
2023/07/30 03:58:16;;;;;;;3.03;1.20;;;;;;;15.57;68.75;100251.88;4983988;28;20050;-73
2023/07/30 04:00:43;;;;;;;3.22;1.10;;;;;;;15.59;68.70;100257.03;4984780;28;20106;-72
2023/07/30 04:03:10;;;;;;;3.47;1.30;;;;;;;15.60;68.76;100248.25;4983366;28;20068;-73
2023/07/30 04:05:37;;;;;;;3.50;1.30;;;;;;;15.62;68.95;100249.84;4980510;28;20061;-73
2023/07/30 04:08:04;;;;;;;2.08;1.08;;;;;;;15.65;69.04;100255.00;4981184;28;20042;-72
2023/07/30 04:10:32;;;;;;;2.70;1.58;;;;;;;15.67;69.31;100253.13;4981680;28;20048;-73
2023/07/30 04:13:00;;;;;;;4.80;1.20;;;;;;;15.68;69.25;100251.38;4979465;28;20054;-72
2023/07/30 04:15:27;;;;;;;4.82;1.10;;;;;;;15.67;69.49;100241.72;4976006;28;20046;-73
2023/07/30 04:17:54;;;;;;;1.90;1.20;;;;;;;15.74;69.34;100253.72;4979976;28;20054;-73
2023/07/30 04:20:21;;;;;;;2.47;1.60;;;;;;;15.76;69.47;100246.59;4971636;28;20059;-72
2023/07/30 04:22:48;;;;;;;1.75;1.15;;;;;;;15.79;69.76;100245.59;4981218;28;20047;-72
2023/07/30 04:25:15;;;;;;;4.57;1.00;;;;;;;15.79;69.70;100243.81;4986806;28;20061;-74
2023/07/30 04:27:43;;;;;;;1.80;1.08;;;;;;;15.85;69.83;100255.81;4983355;28;20051;-72
2023/07/30 04:30:11;;;;;;;3.75;1.35;;;;;;;15.81;70.23;100239.31;4984509;28;20049;-73
2023/07/30 04:32:38;;;;;;;2.50;1.80;;;;;;;15.92;70.77;100246.72;4979431;28;20061;-73
2023/07/30 04:35:06;;;;;;;3.08;1.52;;;;;;;15.94;70.60;100240.44;4980730;28;20070;-73
2023/07/30 04:37:33;;;;;;;4.80;2.40;;;;;;;15.98;70.65;100245.56;4981110;28;20060;-72
2023/07/30 04:40:00;;;;;;;5.70;1.35;;;;;;;16.01;70.84;100250.66;4982070;28;20153;-73
2023/07/30 04:42:27;;;;;;;3.88;1.58;;;;;;;16.03;70.90;100244.41;4982898;28;20046;-72
2023/07/30 04:44:55;;;;;;;4.10;1.30;;;;;;;16.08;71.00;100246.78;4975453;28;20710;-73
2023/07/30 04:47:22;;;;;;;4.85;2.25;;;;;;;16.11;71.34;100254.56;4976750;28;20046;-73
2023/07/30 04:49:49;;;;;;;1.48;1.38;;;;;;;16.14;71.14;100251.78;4978803;28;20060;-73
2023/07/30 04:52:15;;;;;;;3.05;2.17;;;;;;;16.17;71.65;100255.09;4980093;28;20051;-73
2023/07/30 04:54:43;;;;;;;1.92;1.48;;;;;;;16.23;71.47;100256.56;4979289;28;20525;-73
2023/07/30 04:57:10;;;;;;;2.80;1.65;;;;;;;16.21;71.64;100250.53;4979479;28;20054;-73
2023/07/30 04:59:37;;;;;;;4.57;1.90;;;;;;;16.31;71.89;100253.56;4981985;28;20047;-72
2023/07/30 05:02:06;;;;;;;2.47;1.40;;;;;;;16.36;72.01;100251.53;4980466;28;20050;-72
2023/07/30 05:04:33;;;;;;;4.20;1.40;;;;;;;16.40;71.79;100258.38;4981954;28;20043;-73
2023/07/30 05:07:00;;;;;;;5.35;1.73;;;;;;;16.41;72.16;100255.63;4979071;28;20046;-72
2023/07/30 05:09:27;;;;;;;3.50;1.52;;;;;;;16.47;72.07;100259.75;4982183;28;20042;-73
2023/07/30 05:11:53;;;;;;;5.13;1.92;;;;;;;16.52;71.97;100255.09;4978976;28;20054;-73
2023/07/30 05:14:20;;;;;;;3.20;1.77;;;;;;;16.56;72.26;100248.75;4981752;28;20055;-73
2023/07/30 05:16:47;;;;;;;2.15;1.88;;;;;;;16.61;72.18;100256.41;4975414;28;20056;-73
2023/07/30 05:19:17;;;;;;;2.90;1.67;;;;;;;16.65;72.37;100252.69;4981472;28;20065;-73
2023/07/30 05:21:43;;;;;;;2.80;1.80;;;;;;;16.69;72.12;100256.00;4982556;28;20051;-73
2023/07/30 05:24:10;;;;;;;4.30;1.83;;;;;;;16.73;72.06;100242.56;4982437;28;20046;-73
2023/07/30 05:26:37;;;;;;;4.88;1.98;;;;;;;16.77;72.22;100246.78;4975024;28;20053;-73
2023/07/30 05:29:04;;;;;;;5.30;2.22;;;;;;;16.82;72.57;100238.63;4979622;28;20077;-74
2023/07/30 05:31:31;;;;;;;3.33;1.65;;;;;;;16.85;72.45;100236.69;4978600;28;20058;-73
2023/07/30 05:33:58;;;;;;;5.13;1.90;;;;;;;16.92;72.38;100239.00;4980578;28;20049;-74
2023/07/30 05:36:26;;;;;;;6.72;2.28;;;;;;;16.89;72.57;100226.81;4978831;28;20035;-73
2023/07/30 05:38:53;;;;;;;5.55;2.05;;;;;;;16.99;72.66;100241.25;4979695;28;20081;-73
2023/07/30 05:41:21;;;;;;;4.03;1.90;;;;;;;17.03;72.66;100242.75;4978231;28;20111;-74
2023/07/30 05:43:48;;;;;;;3.13;2.03;;;;;;;17.07;72.37;100233.75;4973992;28;20101;-73
2023/07/30 05:46:15;;;;;;;6.65;1.90;;;;;;;17.11;72.44;100250.28;4974871;28;20050;-73
2023/07/30 05:48:42;;;;;;;9.02;2.38;;;;;;;17.15;72.62;100235.97;4985168;28;20057;-73
2023/07/30 05:51:09;;;;;;;2.83;1.90;;;;;;;17.21;72.56;100242.69;4976289;28;20051;-73
2023/07/30 05:53:37;;;;;;;3.63;2.22;;;;;;;17.25;72.41;100237.19;4974774;28;20050;-74
2023/07/30 05:56:04;;;;;;;3.75;1.65;;;;;;;17.30;72.41;100224.59;4982665;28;20137;-73
2023/07/30 05:58:31;;;;;;;4.63;1.63;;;;;;;17.36;72.23;100227.81;4980782;28;20073;-73
2023/07/30 06:00:58;;;;;;;7.75;2.00;;;;;;;17.38;72.36;100220.66;4975844;28;20518;-73
2023/07/30 06:03:25;;;;;;;4.30;1.70;;;;;;;17.46;72.21;100231.66;4976257;28;20046;-73
2023/07/30 06:05:52;;;;;;;3.30;2.55;;;;;;;17.51;72.35;100226.97;4980102;28;20050;-74
2023/07/30 06:08:19;;;;;;;6.93;2.28;;;;;;;17.56;72.39;100224.94;4979094;28;20434;-73
2023/07/30 06:10:47;;;;;;;6.53;2.17;;;;;;;17.62;72.31;100219.28;4979975;28;20074;-73
2023/07/30 06:13:14;;;;;;;5.50;1.60;;;;;;;17.69;72.32;100225.91;4979624;28;20053;-73
2023/07/30 06:15:41;;;;;;;4.03;1.73;;;;;;;17.75;72.22;100219.44;4976456;28;20142;-74
2023/07/30 06:18:08;;;;;;;4.55;2.10;;;;;;;17.80;71.99;100219.22;4984598;28;20042;-73
2023/07/30 06:20:35;;;;;;;4.20;2.08;;;;;;;17.84;71.77;100215.44;4985350;28;20054;-72
2023/07/30 06:23:03;;;;;;;5.63;1.77;;;;;;;17.88;71.76;100215.19;4986135;28;20050;-73
2023/07/30 06:25:30;;;;;;;2.00;1.70;;;;;;;17.93;71.76;100217.56;4984605;28;20112;-72
2023/07/30 06:27:59;;;;;;;2.15;1.77;;;;;;;17.97;71.52;100219.09;4981405;28;20085;-73
2023/07/30 06:30:26;;;;;;;3.65;2.45;;;;;;;18.01;71.76;100225.88;4985105;28;20376;-72
2023/07/30 06:32:53;;;;;;;5.50;1.90;;;;;;;18.06;71.60;100223.00;4984410;28;20053;-72
2023/07/30 06:35:20;;;;;;;1.92;1.58;;;;;;;18.10;71.66;100221.84;4984620;28;20129;-72
2023/07/30 06:37:47;;;;;;;6.00;1.60;;;;;;;18.14;71.43;100218.97;4984742;28;20132;-71
2023/07/30 06:40:14;;;;;;;3.60;1.73;;;;;;;18.19;71.19;100218.69;4982926;28;20060;-72
2023/07/30 06:42:40;;;;;;;6.03;2.35;;;;;;;18.26;71.21;100227.09;4987235;28;20060;-72
2023/07/30 06:45:10;;;;;;;5.85;1.60;;;;;;;18.30;71.54;100215.41;4978673;28;20047;-72
2023/07/30 06:47:37;;;;;;;4.00;2.40;;;;;;;18.36;71.57;100218.53;4979445;28;20046;-72
2023/07/30 06:50:08;;;;;;;4.90;1.83;;;;;;;18.41;71.71;100218.25;4986397;28;20048;-72
2023/07/30 06:52:35;;;;;;;2.20;1.77;;;;;;;18.41;71.44;100207.66;4984079;28;20086;-72
2023/07/30 06:55:02;;;;;;;3.88;1.90;;;;;;;18.53;71.35;100220.19;4986957;28;20057;-72
2023/07/30 06:57:29;;;;;;;2.33;1.75;;;;;;;18.58;71.20;100218.06;4986202;28;20054;-72
2023/07/30 06:59:56;;;;;;;4.70;1.73;;;;;;;18.64;71.21;100219.50;4982231;28;20059;-72
2023/07/30 07:02:25;;;;;;;6.90;1.88;;;;;;;18.70;71.32;100231.50;4983631;28;20054;-72
2023/07/30 07:04:51;;;;;;;2.20;1.98;;;;;;;18.75;71.03;100224.19;4983850;28;20060;-72
2023/07/30 07:07:18;;;;;;;2.30;1.55;;;;;;;18.75;71.16;100208.31;4982520;28;20550;-73
2023/07/30 07:09:45;;;;;;;2.42;1.55;;;;;;;18.87;71.15;100221.66;4985045;28;20061;-72
2023/07/30 07:12:12;;;;;;;3.45;1.73;;;;;;;18.93;70.93;100224.88;4985655;28;20414;-73
2023/07/30 07:14:40;;;;;;;2.42;1.73;;;;;;;18.99;70.54;100229.78;4985905;28;20050;-72
2023/07/30 07:17:07;;;;;;;3.20;1.58;;;;;;;19.03;70.46;100221.53;4985164;28;20057;-72
2023/07/30 07:19:36;;;;;;;6.50;1.95;;;;;;;19.09;70.28;100221.13;4985109;28;20083;-72
2023/07/30 07:22:04;;;;;;;2.35;1.88;;;;;;;19.15;70.17;100219.06;4988851;28;20113;-72
2023/07/30 07:24:31;;;;;;;4.97;1.95;;;;;;;19.21;70.21;100226.59;4989898;28;20498;-72
2023/07/30 07:26:58;;;;;;;3.38;1.58;;;;;;;19.24;69.63;100219.34;4989691;28;20495;-72
2023/07/30 07:29:25;;;;;;;2.35;1.50;;;;;;;19.30;69.46;100218.94;4986683;28;20149;-72
2023/07/30 07:31:53;;;;;;;2.25;1.63;;;;;;;19.37;69.56;100224.69;4985084;28;20057;-73
2023/07/30 07:34:20;;;;;;;4.65;1.40;;;;;;;19.44;69.24;100219.84;4984451;28;20046;-72
2023/07/30 07:36:48;;;;;;;3.85;1.13;;;;;;;19.50;68.62;100230.06;4982859;28;20050;-72
2023/07/30 07:39:15;;;;;;;3.58;1.52;;;;;;;19.51;68.48;100216.72;4986120;28;20061;-72
2023/07/30 07:41:42;;;;;;;3.70;1.67;;;;;;;19.55;68.07;100215.59;4981504;28;20056;-72
2023/07/30 07:44:08;;;;;;;2.58;1.25;;;;;;;19.68;68.21;100228.06;4976036;28;20057;-73
2023/07/30 07:46:35;;;;;;;2.38;1.00;;;;;;;19.75;67.94;100224.03;4973348;28;20047;-72
2023/07/30 07:49:02;;;;;;;2.60;1.13;;;;;;;19.80;67.34;100219.28;4987920;28;20453;-72
2023/07/30 07:51:29;;;;;;;1.85;1.33;;;;;;;19.88;67.20;100224.94;4986453;28;20051;-72
2023/07/30 07:53:58;;;;;;;2.15;1.30;;;;;;;19.95;66.88;100222.72;4980786;28;20051;-72
2023/07/30 07:56:25;;;;;;;2.35;1.27;;;;;;;20.02;66.33;100233.78;4976530;28;20051;-72
2023/07/30 07:58:51;;;;;;;2.22;1.25;;;;;;;20.06;66.08;100227.31;4979843;28;20053;-73
2023/07/30 08:01:18;;;;;;;1.20;1.02;;;;;;;20.14;65.98;100235.63;4977916;28;20046;-73
2023/07/30 08:03:45;;;;;;;3.35;1.33;;;;;;;20.19;65.16;100238.81;4979771;28;20061;-72
2023/07/30 08:06:12;;;;;;;4.25;1.42;;;;;;;20.24;65.13;100227.91;4981590;28;20057;-72
2023/07/30 08:08:40;;;;;;;2.78;1.10;;;;;;;20.29;64.77;100224.00;4980858;28;20057;-72
2023/07/30 08:11:09;;;;;;;2.65;1.13;;;;;;;20.30;64.42;100217.72;4979863;28;20050;-72
2023/07/30 08:13:36;;;;;;;2.53;1.40;;;;;;;20.39;63.36;100218.91;4980980;28;20050;-72
2023/07/30 08:16:04;;;;;;;2.88;1.20;;;;;;;20.41;63.18;100222.31;4978802;28;20039;-72
2023/07/30 08:18:30;;;;;;;1.38;1.10;;;;;;;20.45;63.38;100218.47;4983843;28;20126;-72
2023/07/30 08:20:57;;;;;;;2.55;1.10;;;;;;;20.21;62.81;100178.56;4979438;28;20056;-72
2023/07/30 08:23:24;;;;;;;3.47;1.25;;;;;;;20.50;62.67;100220.81;4987220;28;20054;-72
2023/07/30 08:25:51;;;;;;;1.20;1.10;;;;;;;20.53;62.61;100221.50;4978742;28;20434;-72
2023/07/30 08:28:19;;;;;;;2.95;1.20;;;;;;;20.55;62.67;100208.97;4975626;28;20068;-73
2023/07/30 08:30:46;;;;;;;4.75;1.55;;;;;;;20.58;62.77;100218.53;4977844;28;20062;-72
2023/07/30 08:33:13;;;;;;;2.15;1.42;;;;;;;20.62;62.64;100214.69;4980280;28;20062;-72
2023/07/30 08:35:40;;;;;;;2.38;1.33;;;;;;;20.55;61.99;100186.88;4982509;28;20696;-72
2023/07/30 08:38:07;;;;;;;1.67;1.33;;;;;;;20.71;62.50;100208.75;4982504;28;20049;-73
2023/07/30 08:40:34;;;;;;;2.38;1.92;;;;;;;20.77;62.45;100203.00;4974526;28;20050;-72
2023/07/30 08:43:04;;;;;;;3.83;1.63;;;;;;;20.83;62.46;100199.94;4974867;28;20047;-75
2023/07/30 08:45:32;;;;;;;2.65;1.60;;;;;;;20.87;62.00;100198.75;4983581;28;20392;-72
2023/07/30 08:47:59;;;;;;;3.33;1.30;;;;;;;20.93;61.17;100207.25;4979954;28;20058;-72
2023/07/30 08:50:27;;;;;;;3.58;1.17;;;;;;;20.93;60.90;100196.63;4976015;28;20049;-73
2023/07/30 08:52:56;;;;;;;3.75;1.17;;;;;;;20.98;60.54;100199.81;4979984;28;20058;-72
2023/07/30 08:55:23;;;;;;;3.55;1.55;;;;;;;21.00;60.35;100192.56;4978241;28;20050;-72
2023/07/30 08:57:52;;;;;;;2.10;1.10;;;;;;;21.06;60.15;100197.44;4979935;28;20429;-72
2023/07/30 09:00:20;;;;;;;2.40;1.23;;;;;;;21.10;60.05;100191.81;4983127;28;20053;-74
2023/07/30 09:02:51;;;;;;;1.58;1.23;;;;;;;21.17;59.79;100197.50;4981986;28;20050;-73
2023/07/30 09:05:20;;;;;;;1.98;1.33;;;;;;;21.23;59.90;100205.06;4979235;28;20061;-73
2023/07/30 09:07:47;;;;;;;2.25;1.13;;;;;;;21.30;59.59;100205.47;4976831;28;20082;-72
2023/07/30 09:10:14;;;;;;;2.28;1.60;;;;;;;21.37;59.64;100206.72;4978131;28;20054;-73
2023/07/30 09:12:41;;;;;;;2.15;1.30;;;;;;;21.43;59.35;100203.66;4978988;28;20054;-73
2023/07/30 09:15:09;;;;;;;1.70;1.40;;;;;;;21.51;59.09;100203.06;4977357;28;20050;-73
2023/07/30 09:17:36;;;;;;;2.28;0.93;;;;;;;21.60;59.46;100205.09;4980340;28;20047;-72
2023/07/30 09:20:06;;;;;;;5.35;1.80;;;;;;;21.67;59.12;100202.81;4981870;28;20055;-72
2023/07/30 09:22:36;;;;;;;3.40;1.15;;;;;;;21.72;58.82;100204.16;4975782;28;20057;-73
2023/07/30 09:25:03;;;;;;;1.70;0.90;;;;;;;21.82;58.64;100206.13;4975240;28;20047;-72
2023/07/30 09:27:34;;;;;;;3.03;1.05;;;;;;;21.87;58.38;100206.66;4974354;28;20050;-73
2023/07/30 09:30:02;;;;;;;1.50;0.93;;;;;;;21.95;57.48;100209.59;4980706;28;20434;-73
2023/07/30 09:32:30;;;;;;;2.67;0.98;;;;;;;22.02;57.48;100216.13;4979631;28;20055;-74
2023/07/30 09:35:05;;;;;;;2.60;1.00;;;;;;;22.09;57.44;100219.19;4978682;28;20051;-73
2023/07/30 09:37:37;;;;;;;1.83;1.05;;;;;;;22.14;57.60;100207.25;4977408;28;20050;-73
2023/07/30 09:40:04;;;;;;;3.03;1.38;;;;;;;22.25;58.70;100214.41;4983694;28;20058;-74
2023/07/30 09:42:33;;;;;;;1.35;0.80;;;;;;;22.20;58.10;100200.63;4984191;28;20066;-73
2023/07/30 09:45:00;;;;;;;0.60;0.50;;;;;;;22.39;58.07;100224.00;4972241;28;20054;-73
2023/07/30 09:47:27;;;;;;;0.80;0.68;;;;;;;22.47;57.83;100224.25;4970829;28;20483;-72
2023/07/30 09:49:55;;;;;;;2.05;1.05;;;;;;;22.52;57.81;100214.13;4984478;28;20042;-73
2023/07/30 09:52:22;;;;;;;2.72;1.00;;;;;;;22.60;58.44;100222.38;4974022;28;20054;-73
2023/07/30 09:54:53;;;;;;;1.33;0.80;;;;;;;22.66;57.84;100224.53;4973717;28;20047;-73
2023/07/30 09:57:19;;;;;;;1.52;0.90;;;;;;;22.71;57.71;100231.31;4974838;28;20047;-73
2023/07/30 09:59:46;;;;;;;1.77;1.00;;;;;;;22.65;57.92;100214.88;4974875;28;20085;-73
2023/07/30 10:02:14;;;;;;;2.22;1.00;;;;;;;22.81;58.12;100234.97;4975341;28;20157;-73
2023/07/30 10:04:44;;;;;;;2.45;1.00;;;;;;;22.84;57.79;100230.25;4977034;28;20056;-73
2023/07/30 10:07:15;;;;;;;1.00;0.90;;;;;;;22.90;57.81;100237.75;4976958;28;20042;-73
2023/07/30 10:09:46;;;;;;;1.02;1.00;;;;;;;22.94;57.04;100242.81;4979593;28;20047;-73
2023/07/30 10:12:19;;;;;;;2.08;1.13;;;;;;;22.90;57.19;100239.56;4978164;28;20054;-73
2023/07/30 10:14:46;;;;;;;1.13;1.02;;;;;;;22.94;57.47;100246.34;4979197;28;20053;-73
2023/07/30 10:17:12;;;;;;;1.85;1.08;;;;;;;22.97;57.51;100250.59;4978406;28;20046;-73
2023/07/30 10:19:39;;;;;;;1.70;1.58;;;;;;;22.99;57.73;100246.00;4973950;28;20062;-74
2023/07/30 10:22:22;;;;;;;2.95;1.40;;;;;;;23.00;57.57;100243.25;4981675;28;20046;-73
2023/07/30 10:24:57;;;;;;;1.08;0.80;;;;;;;23.02;57.44;100245.75;4973306;28;20054;-73
2023/07/30 10:27:26;;;;;;;1.58;1.00;;;;;;;23.03;57.60;100237.66;4983509;28;20081;-73
2023/07/30 10:30:12;;;;;;;1.88;1.70;;;;;;;23.08;57.73;100251.47;4973728;28;20057;-74
2023/07/30 10:32:41;;;;;;;;;;;;;;;23.10;57.65;100238.84;4980768;28;20045;-72
2023/07/30 10:35:08;;;;;;;1.92;1.13;;;;;;;23.12;58.07;100242.25;4977373;28;19928;-73
2023/07/30 10:37:36;;;;;;;1.67;1.58;;;;;;;23.17;57.80;100243.69;4981544;28;20091;-74
2023/07/30 10:40:17;;;;;;;1.70;1.60;;;;;;;23.15;57.89;100227.00;4983293;28;20081;-73
2023/07/30 10:42:46;;;;;;;2.80;1.52;;;;;;;23.20;57.93;100232.81;4981849;28;20054;-72
2023/07/30 10:45:13;;;;;;;2.35;1.30;;;;;;;23.22;57.92;100226.38;4976784;28;20046;-73
2023/07/30 10:47:42;;;;;;;2.88;1.52;;;;;;;23.25;58.08;100230.63;4972667;28;20061;-72
2023/07/30 10:50:12;;;;;;;2.05;1.95;;;;;;;23.26;57.64;100233.16;4974407;28;20093;-73
2023/07/30 10:52:39;;;;;;;1.58;1.27;;;;;;;23.28;57.77;100233.91;4977051;28;20126;-73
2023/07/30 10:55:07;;;;;;;1.67;1.58;;;;;;;23.30;57.25;100231.09;4978680;28;20430;-74
2023/07/30 10:57:34;;;;;;;2.50;1.40;;;;;;;23.25;57.19;100228.81;4980897;28;20048;-73
2023/07/30 11:00:04;;;;;;;1.90;1.50;;;;;;;23.30;57.21;100220.44;4975628;28;20460;-74
2023/07/30 11:02:31;;;;;;;2.78;1.65;;;;;;;23.31;57.19;100230.16;4974453;28;20076;-73
2023/07/30 11:04:58;;;;;;;2.35;2.10;;;;;;;23.29;57.37;100227.59;4979368;28;20070;-73
2023/07/30 11:07:25;;;;;;;2.85;1.52;;;;;;;23.31;57.38;100228.31;4976210;28;20050;-73
2023/07/30 11:10:01;;;;;;;4.63;2.00;;;;;;;23.33;57.42;100226.34;4981189;28;20050;-73
2023/07/30 11:12:28;;;;;;;2.30;1.95;;;;;;;23.34;57.35;100227.22;4980283;28;20070;-73
2023/07/30 11:15:03;;;;;;;1.88;1.65;;;;;;;23.36;57.33;100219.94;4978326;28;20684;-73
2023/07/30 11:17:30;;;;;;;1.80;1.70;;;;;;;23.36;57.33;100222.59;4982609;28;20043;-73
2023/07/30 11:19:57;;;;;;;1.40;1.30;;;;;;;23.34;56.96;100220.06;4983295;28;20105;-73
2023/07/30 11:22:31;;;;;;;2.60;1.67;;;;;;;23.32;56.81;100216.69;4983861;28;20049;-72
2023/07/30 11:24:58;;;;;;;2.88;1.63;;;;;;;23.33;56.63;100222.84;4978942;28;20051;-73
2023/07/30 11:27:25;;;;;;;1.67;1.40;;;;;;;23.30;56.57;100217.78;4980340;28;20046;-73